Time;durP1;ratioP1;P1;durP2;ratioP2;P2;SDS_P1;SDS_P2;PMS_P1;PMS_P2;Temp;Humidity;BMP_temperature;BMP_pressure;BME280_temperature;BME280_humidity;BME280_pressure;Samples;Min_cycle;Max_cycle;Signal;HPM_P1;HPM_P2
2022/07/07 00:00:18;;;;;;;2.50;1.30;;;;;;;17.41;73.86;99235.58;1746116;80;20856;-67
2022/07/07 00:02:45;;;;;;;1.60;1.50;;;;;;;17.34;73.92;99236.67;1756327;80;20943;-67
2022/07/07 00:05:11;;;;;;;1.62;1.12;;;;;;;17.24;73.92;99235.28;1753070;80;20955;-67
2022/07/07 00:07:38;;;;;;;4.85;1.45;;;;;;;17.21;74.19;99236.23;1753035;80;20923;-67
2022/07/07 00:10:06;;;;;;;2.35;1.45;;;;;;;17.20;74.17;99233.27;1770129;80;20988;-67
2022/07/07 00:12:33;;;;;;;2.15;1.27;;;;;;;17.14;74.15;99230.92;1752607;80;21481;-67
2022/07/07 00:15:00;;;;;;;2.55;1.55;;;;;;;17.09;74.30;99230.75;1769528;80;20899;-67
2022/07/07 00:17:27;;;;;;;1.98;1.62;;;;;;;17.06;74.38;99230.35;1762914;80;21006;-67
2022/07/07 00:19:54;;;;;;;1.27;1.17;;;;;;;17.01;74.45;99225.64;1779195;80;21005;-67
2022/07/07 00:22:20;;;;;;;3.02;1.60;;;;;;;16.99;74.57;99230.41;1767517;80;21318;-67
2022/07/07 00:24:47;;;;;;;2.10;1.77;;;;;;;17.00;74.60;99232.55;1752412;80;20915;-68
2022/07/07 00:27:13;;;;;;;1.52;1.42;;;;;;;16.99;74.33;99230.41;1755338;80;21094;-67
2022/07/07 00:29:39;;;;;;;1.80;1.50;;;;;;;16.95;74.38;99234.56;1777828;80;20883;-68
2022/07/07 00:32:06;;;;;;;2.17;1.87;;;;;;;16.91;74.28;99223.95;1760477;80;21033;-67
2022/07/07 00:34:33;;;;;;;1.55;1.45;;;;;;;16.89;74.25;99233.27;1769371;80;21265;-67
2022/07/07 00:37:00;;;;;;;2.35;1.25;;;;;;;16.86;74.21;99236.39;1771801;80;20907;-67
2022/07/07 00:39:27;;;;;;;2.52;1.85;;;;;;;16.82;74.22;99229.27;1759209;80;21365;-67
2022/07/07 00:41:54;;;;;;;4.00;1.72;;;;;;;16.79;74.29;99222.98;1782404;80;21032;-67
2022/07/07 00:44:22;;;;;;;1.72;1.62;;;;;;;16.77;74.35;99222.89;1769090;80;20911;-68
2022/07/07 00:46:53;;;;;;;1.82;1.60;;;;;;;16.72;74.36;99225.41;1782614;80;21279;-67
2022/07/07 00:49:20;;;;;;;1.60;1.50;;;;;;;16.69;74.45;99219.95;1769376;80;21036;-66
2022/07/07 00:51:47;;;;;;;3.05;1.72;;;;;;;16.65;74.50;99226.29;1769133;80;20855;-67
2022/07/07 00:54:13;;;;;;;3.02;1.50;;;;;;;16.61;74.74;99230.94;1768221;80;21071;-66
2022/07/07 00:56:40;;;;;;;4.20;1.70;;;;;;;16.60;74.67;99231.99;1755374;80;21432;-66
2022/07/07 00:59:07;;;;;;;2.80;1.70;;;;;;;16.55;74.76;99224.59;1774053;80;22323;-66
2022/07/07 01:01:37;;;;;;;2.20;2.00;;;;;;;16.51;75.08;99223.84;1754023;80;20935;-66
2022/07/07 01:04:06;;;;;;;3.27;1.70;;;;;;;16.48;75.10;99225.60;1777378;80;20959;-66
2022/07/07 01:06:33;;;;;;;3.25;1.72;;;;;;;16.43;75.26;99229.45;1755644;80;20939;-66
2022/07/07 01:09:00;;;;;;;3.50;1.47;;;;;;;16.39;75.26;99228.24;1752623;80;20839;-66
2022/07/07 01:11:26;;;;;;;2.02;1.50;;;;;;;16.34;75.34;99236.94;1766953;80;21225;-66
2022/07/07 01:13:53;;;;;;;2.02;1.42;;;;;;;16.31;75.32;99232.51;1758154;80;20978;-65
2022/07/07 01:16:19;;;;;;;3.47;1.60;;;;;;;16.28;75.45;99238.30;1749253;80;20883;-67
2022/07/07 01:18:46;;;;;;;1.92;1.50;;;;;;;16.22;75.37;99233.25;1741323;81;20964;-66
2022/07/07 01:21:13;;;;;;;2.47;1.40;;;;;;;16.19;75.44;99228.30;1748943;82;21009;-66
2022/07/07 01:23:40;;;;;;;1.10;1.10;;;;;;;16.15;75.28;99232.97;1749152;82;21313;-65
2022/07/07 01:26:07;;;;;;;2.52;1.40;;;;;;;16.11;75.35;99238.47;1752349;80;20921;-66
2022/07/07 01:28:34;;;;;;;5.00;1.70;;;;;;;16.06;75.43;99243.94;1739537;80;21481;-66
2022/07/07 01:31:00;;;;;;;1.15;1.00;;;;;;;16.01;75.40;99249.11;1726572;82;21466;-66
2022/07/07 01:33:27;;;;;;;1.35;1.25;;;;;;;15.98;75.50;99244.70;1737630;81;20891;-66
2022/07/07 01:35:54;;;;;;;1.95;1.30;;;;;;;15.96;75.37;99245.41;1745256;81;21258;-66
2022/07/07 01:38:20;;;;;;;1.72;1.15;;;;;;;15.92;75.33;99242.85;1749015;80;21430;-66
2022/07/07 01:40:48;;;;;;;2.65;1.30;;;;;;;15.88;75.35;99243.78;1749086;82;21007;-66
2022/07/07 01:43:14;;;;;;;1.85;1.20;;;;;;;15.86;75.48;99248.53;1747691;80;20918;-66
2022/07/07 01:45:41;;;;;;;1.40;1.30;;;;;;;15.87;75.54;99246.17;1748991;82;21283;-66
2022/07/07 01:48:08;;;;;;;2.22;1.30;;;;;;;15.88;75.35;99243.78;1750644;80;21131;-67
2022/07/07 01:50:35;;;;;;;2.30;1.20;;;;;;;15.84;75.20;99246.59;1685226;85;20921;-66
2022/07/07 01:53:02;;;;;;;3.22;1.40;;;;;;;15.79;75.34;99245.05;1675708;84;20935;-66
2022/07/07 01:55:29;;;;;;;3.40;1.42;;;;;;;15.73;75.34;99237.83;1662948;85;20959;-66
2022/07/07 01:57:55;;;;;;;4.00;1.20;;;;;;;15.69;75.41;99237.95;1744714;81;20960;-66
2022/07/07 02:00:22;;;;;;;2.70;1.27;;;;;;;15.67;75.29;99240.00;1736886;82;21300;-66
2022/07/07 02:02:48;;;;;;;2.22;1.10;;;;;;;15.65;75.29;99244.75;1734483;80;20856;-66
2022/07/07 02:05:15;;;;;;;2.50;1.17;;;;;;;15.65;75.29;99242.58;1750725;81;21015;-66
2022/07/07 02:07:41;;;;;;;3.92;1.30;;;;;;;15.65;75.32;99241.23;1749466;82;21661;-66
2022/07/07 02:10:08;;;;;;;1.40;1.10;;;;;;;15.65;75.16;99251.45;1748580;82;21528;-66
2022/07/07 02:12:35;;;;;;;3.42;1.30;;;;;;;15.66;75.18;99250.94;1749300;82;21138;-66
2022/07/07 02:15:02;;;;;;;2.40;1.55;;;;;;;15.64;75.23;99253.02;1748970;80;20959;-67
2022/07/07 02:17:28;;;;;;;3.33;1.10;;;;;;;15.62;75.20;99251.87;1766113;81;20923;-66
2022/07/07 02:19:55;;;;;;;3.50;1.47;;;;;;;15.61;75.13;99247.55;1759981;81;20986;-66
2022/07/07 02:22:21;;;;;;;4.53;1.37;;;;;;;15.61;75.05;99245.38;1760554;81;20836;-66
2022/07/07 02:24:48;;;;;;;5.85;1.40;;;;;;;15.60;75.00;99252.59;1757117;81;21325;-66
2022/07/07 02:27:14;;;;;;;4.20;2.05;;;;;;;15.61;74.82;99250.23;1765734;81;21542;-66
2022/07/07 02:29:41;;;;;;;3.17;1.67;;;;;;;15.60;74.48;99252.59;1750329;81;21026;-66
2022/07/07 02:32:08;;;;;;;1.67;1.37;;;;;;;15.52;74.32;99254.14;1747218;81;21094;-66
2022/07/07 02:34:35;;;;;;;3.42;1.40;;;;;;;15.47;74.31;99253.94;1760612;81;20919;-66
2022/07/07 02:37:01;;;;;;;3.95;1.65;;;;;;;15.41;74.51;99255.56;1748324;81;21158;-67
2022/07/07 02:39:28;;;;;;;1.82;1.60;;;;;;;15.33;74.82;99257.10;1752907;81;20915;-67
2022/07/07 02:41:54;;;;;;;2.70;1.27;;;;;;;15.28;75.01;99256.90;1765671;81;20987;-66
2022/07/07 02:44:21;;;;;;;3.02;1.10;;;;;;;15.26;75.08;99260.81;1765244;81;20951;-67
2022/07/07 02:46:47;;;;;;;4.60;1.27;;;;;;;15.25;75.13;99257.84;1759443;80;20880;-67
2022/07/07 02:49:14;;;;;;;3.22;1.92;;;;;;;15.24;75.39;99261.03;1742145;81;21276;-66
2022/07/07 02:51:41;;;;;;;3.10;1.90;;;;;;;15.30;75.73;99264.20;1757030;81;21020;-67
2022/07/07 02:54:07;;;;;;;4.47;1.47;;;;;;;15.41;75.81;99260.92;1756140;81;20848;-67
2022/07/07 02:56:34;;;;;;;1.82;1.37;;;;;;;15.54;75.86;99267.36;1750199;81;20958;-67
2022/07/07 02:59:00;;;;;;;3.35;1.50;;;;;;;15.63;75.99;99254.03;1737229;81;20885;-67
2022/07/07 03:01:27;;;;;;;1.57;1.22;;;;;;;15.71;75.97;99258.67;1744297;81;21503;-67
2022/07/07 03:03:53;;;;;;;2.47;1.30;;;;;;;15.80;75.79;99256.61;1749043;81;21470;-67
2022/07/07 03:06:21;;;;;;;3.10;1.30;;;;;;;15.89;75.54;99254.00;1751807;81;20883;-67
2022/07/07 03:08:47;;;;;;;5.37;1.47;;;;;;;15.97;75.28;99257.80;1750410;81;20907;-67
2022/07/07 03:11:14;;;;;;;2.92;1.92;;;;;;;16.03;75.06;99259.66;1757415;81;20935;-66
2022/07/07 03:13:42;;;;;;;2.72;1.30;;;;;;;16.13;75.13;99257.35;1758176;80;21313;-67
2022/07/07 03:16:09;;;;;;;2.92;1.25;;;;;;;16.31;75.04;99256.66;1774252;80;20907;-67
2022/07/07 03:18:36;;;;;;;3.80;1.40;;;;;;;16.51;74.67;99260.09;1766712;80;20915;-66
2022/07/07 03:21:02;;;;;;;4.10;1.52;;;;;;;16.72;74.17;99259.81;1770603;80;21311;-67
2022/07/07 03:23:29;;;;;;;4.83;1.55;;;;;;;16.94;73.66;99263.83;1752587;80;21402;-66
2022/07/07 03:25:56;;;;;;;3.50;1.30;;;;;;;17.18;73.25;99268.95;1780257;80;21824;-67
2022/07/07 03:28:22;;;;;;;4.72;1.30;;;;;;;17.42;72.76;99272.16;1763943;80;21555;-67
2022/07/07 03:30:50;;;;;;;2.72;1.40;;;;;;;17.71;72.33;99269.36;1751944;80;20931;-67
2022/07/07 03:33:17;;;;;;;8.95;1.85;;;;;;;18.02;71.61;99263.88;1757769;80;20979;-67
2022/07/07 03:35:43;;;;;;;4.53;1.80;;;;;;;18.35;70.96;99265.66;1771207;80;21188;-67
2022/07/07 03:38:10;;;;;;;5.47;1.17;;;;;;;18.76;70.09;99265.51;1763767;80;21149;-66
2022/07/07 03:40:37;;;;;;;2.92;1.50;;;;;;;19.30;68.59;99257.76;1752308;80;20970;-67
2022/07/07 03:43:03;;;;;;;4.45;2.00;;;;;;;19.88;66.69;99253.80;1771486;80;20919;-67
2022/07/07 03:45:30;;;;;;;7.30;2.50;;;;;;;20.26;64.14;99246.02;1776602;80;20931;-67
2022/07/07 03:47:56;;;;;;;5.83;5.33;;;;;;;20.55;63.09;99249.06;1778061;80;21034;-68
2022/07/07 03:50:23;;;;;;;8.33;7.53;;;;;;;20.85;61.29;99247.50;1770180;80;21206;-68
2022/07/07 03:52:49;;;;;;;4.37;3.27;;;;;;;21.16;59.75;99252.42;1764606;80;20923;-68
2022/07/07 03:55:15;;;;;;;2.65;2.45;;;;;;;21.48;58.05;99252.70;1756259;80;21090;-67
2022/07/07 03:57:42;;;;;;;2.37;2.00;;;;;;;21.84;56.77;99252.70;1758170;80;21535;-68
2022/07/07 04:00:10;;;;;;;2.40;1.80;;;;;;;22.27;55.50;99254.68;1759789;80;20951;-67
2022/07/07 04:02:37;;;;;;;2.55;1.67;;;;;;;22.78;53.75;99246.67;1761408;80;21816;-68
2022/07/07 04:05:05;;;;;;;2.10;1.45;;;;;;;23.35;52.12;99241.83;1772882;80;21033;-68
2022/07/07 04:07:33;;;;;;;2.45;1.80;;;;;;;23.96;50.58;99242.27;1778687;80;20951;-67
2022/07/07 04:10:04;;;;;;;2.47;1.42;;;;;;;24.60;49.87;99251.06;1772303;80;21014;-67
2022/07/07 04:12:31;;;;;;;1.98;1.30;;;;;;;25.21;49.09;99242.54;1752640;80;20935;-67
2022/07/07 04:14:57;;;;;;;2.05;1.45;;;;;;;25.88;48.23;99256.43;1767188;80;21150;-67
2022/07/07 04:17:24;;;;;;;2.55;1.20;;;;;;;26.54;46.57;99248.34;1777321;80;20935;-67
2022/07/07 04:19:51;;;;;;;3.98;1.20;;;;;;;27.22;45.29;99245.25;1775183;80;20891;-67
2022/07/07 04:22:18;;;;;;;3.12;1.35;;;;;;;27.87;43.89;99245.27;1763054;80;21006;-69
2022/07/07 04:24:45;;;;;;;4.90;1.85;;;;;;;28.51;42.30;99239.95;1764777;80;21504;-68
2022/07/07 04:27:13;;;;;;;5.28;1.30;;;;;;;29.00;40.98;99240.40;1763415;80;21148;-68
2022/07/07 04:29:39;;;;;;;2.22;1.32;;;;;;;29.42;39.82;99246.91;1765018;80;20943;-68
2022/07/07 04:32:08;;;;;;;8.20;1.40;;;;;;;29.77;38.67;99242.22;1754315;80;20919;-68
2022/07/07 04:34:36;;;;;;;7.70;4.62;;;;;;;30.14;38.18;99242.66;1758934;80;20986;-66
2022/07/07 04:37:04;;;;;;;17.55;15.80;;;;;;;30.58;36.47;99245.05;1770279;80;20997;-65
2022/07/07 04:39:32;;;;;;;6.28;5.53;;;;;;;30.91;34.98;99244.94;1759755;80;20875;-64
2022/07/07 04:41:58;;;;;;;4.90;3.15;;;;;;;31.20;34.06;99243.17;1762603;80;20915;-65
2022/07/07 04:44:26;;;;;;;5.10;2.40;;;;;;;31.62;33.21;99236.66;1770903;80;20970;-66
2022/07/07 04:46:52;;;;;;;4.10;1.72;;;;;;;32.06;31.92;99233.05;1762455;80;21488;-67
2022/07/07 04:49:19;;;;;;;2.12;1.60;;;;;;;32.36;31.05;99234.11;1755722;80;21551;-66
2022/07/07 04:51:45;;;;;;;4.80;1.62;;;;;;;32.58;30.45;99235.44;1767361;80;21854;-67
2022/07/07 04:54:12;;;;;;;1.82;1.70;;;;;;;32.82;30.20;99233.63;1768714;80;20962;-66
2022/07/07 04:56:39;;;;;;;3.37;1.40;;;;;;;33.13;29.29;99238.47;1759165;80;20852;-69
2022/07/07 04:59:06;;;;;;;1.85;1.45;;;;;;;33.32;28.64;99235.38;1768028;80;20971;-68
2022/07/07 05:01:32;;;;;;;2.95;1.50;;;;;;;33.40;28.45;99234.54;1715112;82;20998;-70
2022/07/07 05:03:58;;;;;;;3.45;1.60;;;;;;;33.57;27.89;99238.70;1767646;80;21321;-69
2022/07/07 05:06:25;;;;;;;1.67;1.30;;;;;;;33.80;27.62;99234.59;1758057;80;20974;-69
2022/07/07 05:08:53;;;;;;;3.50;1.75;;;;;;;34.06;27.48;99236.73;1773522;80;21560;-70
2022/07/07 05:11:20;;;;;;;6.12;1.70;;;;;;;34.40;27.36;99238.53;1753630;80;21129;-69
2022/07/07 05:13:47;;;;;;;3.75;1.50;;;;;;;34.77;26.81;99234.13;1764930;80;20987;-69
2022/07/07 05:16:13;;;;;;;4.92;3.62;;;;;;;35.09;25.99;99238.16;1753176;80;21276;-68
2022/07/07 05:18:41;;;;;;;4.08;2.30;;;;;;;35.37;25.62;99239.78;1743966;80;21537;-67
2022/07/07 05:21:08;;;;;;;2.75;1.57;;;;;;;35.75;25.18;99236.25;1752966;80;21488;-70
2022/07/07 05:23:35;;;;;;;2.00;1.52;;;;;;;36.09;24.37;99224.81;1759961;80;21010;-68
2022/07/07 05:26:02;;;;;;;4.70;2.10;;;;;;;36.20;24.24;99239.02;1763217;80;21067;-70
2022/07/07 05:28:31;;;;;;;2.45;1.30;;;;;;;36.38;24.28;99235.69;1759398;80;21154;-70
2022/07/07 05:30:58;;;;;;;1.67;1.40;;;;;;;36.66;23.89;99236.41;1762247;80;22230;-68
2022/07/07 05:33:25;;;;;;;2.83;1.20;;;;;;;37.11;23.51;99231.48;1752700;80;20970;-70
2022/07/07 05:35:51;;;;;;;4.25;1.40;;;;;;;37.65;22.81;99229.08;1763240;80;21010;-71
2022/07/07 05:38:18;;;;;;;1.85;1.75;;;;;;;38.14;22.29;99229.05;1752679;80;21062;-71
2022/07/07 05:40:44;;;;;;;2.60;1.37;;;;;;;38.48;21.84;99226.14;1751740;80;21274;-70
2022/07/07 05:43:11;;;;;;;2.58;1.30;;;;;;;38.79;21.76;99228.89;1754235;80;20939;-71
2022/07/07 05:45:37;;;;;;;2.90;1.80;;;;;;;39.16;21.35;99226.48;1760747;80;20985;-68
2022/07/07 05:48:06;;;;;;;2.55;1.67;;;;;;;39.48;20.86;99229.95;1746334;80;20943;-67
2022/07/07 05:50:33;;;;;;;2.92;1.77;;;;;;;39.79;20.47;99235.97;1755428;80;20978;-67
2022/07/07 05:53:00;;;;;;;2.00;1.32;;;;;;;39.91;20.20;99225.45;1759221;80;21214;-67
2022/07/07 05:55:27;;;;;;;1.20;1.10;;;;;;;40.10;19.86;99226.60;1749161;80;20968;-67
2022/07/07 05:57:53;;;;;;;4.65;1.65;;;;;;;40.15;19.75;99226.28;1745057;80;20984;-66
2022/07/07 06:00:20;;;;;;;4.55;1.47;;;;;;;40.22;19.70;99226.39;1759424;80;20975;-67
2022/07/07 06:02:47;;;;;;;5.08;1.40;;;;;;;40.25;19.74;99235.41;1745017;80;21572;-67
2022/07/07 06:05:14;;;;;;;2.42;1.50;;;;;;;40.50;19.92;99228.27;1755766;80;21874;-67
2022/07/07 06:07:41;;;;;;;4.67;1.85;;;;;;;40.81;19.63;99222.95;1765011;80;20876;-66
2022/07/07 06:10:10;;;;;;;1.80;1.50;;;;;;;41.13;19.04;99222.24;1746949;80;20960;-69
2022/07/07 06:12:39;;;;;;;4.12;1.70;;;;;;;41.08;18.93;99222.58;1763506;80;20954;-67
2022/07/07 06:15:07;;;;;;;1.52;1.27;;;;;;;41.33;18.82;99223.52;1744343;80;21058;-68
2022/07/07 06:17:34;;;;;;;1.77;1.37;;;;;;;41.58;18.16;99224.59;1744580;80;22024;-67
2022/07/07 06:20:01;;;;;;;1.82;1.20;;;;;;;41.34;18.07;99218.94;1764605;80;21381;-67
2022/07/07 06:22:28;;;;;;;1.40;1.17;;;;;;;41.30;18.33;99225.08;1762589;80;20899;-67
2022/07/07 06:24:55;;;;;;;3.33;1.50;;;;;;;41.56;18.17;99223.56;1744544;80;20967;-68
2022/07/07 06:27:22;;;;;;;2.17;1.32;;;;;;;41.82;18.23;99224.09;1746614;80;21018;-68
2022/07/07 06:29:48;;;;;;;2.92;1.45;;;;;;;41.82;18.01;99226.88;1754983;80;21158;-67
2022/07/07 06:32:15;;;;;;;2.45;1.30;;;;;;;41.76;18.17;99225.62;1767157;80;20883;-67
2022/07/07 06:34:43;;;;;;;2.50;1.10;;;;;;;42.04;17.58;99221.69;1756526;80;21422;-68
2022/07/07 06:37:09;;;;;;;2.25;1.10;;;;;;;41.82;17.56;99229.05;1772142;80;20896;-68
2022/07/07 06:39:36;;;;;;;2.00;1.20;;;;;;;41.77;17.40;99225.84;1770584;80;20927;-68
2022/07/07 06:42:04;;;;;;;1.72;1.15;;;;;;;42.07;17.36;99222.32;1773990;80;21149;-68
2022/07/07 06:44:32;;;;;;;2.20;1.30;;;;;;;42.55;17.12;99227.37;1765165;80;20880;-68
2022/07/07 06:47:00;;;;;;;1.30;1.17;;;;;;;42.58;16.93;99225.78;1759373;80;20916;-68
2022/07/07 06:49:27;;;;;;;5.65;1.37;;;;;;;42.17;17.25;99221.64;1753064;80;21019;-68
2022/07/07 06:51:53;;;;;;;2.02;1.10;;;;;;;42.13;17.54;99218.61;1764952;80;21516;-68
2022/07/07 06:54:20;;;;;;;2.20;1.20;;;;;;;42.48;17.60;99220.86;1744317;80;21812;-68
2022/07/07 06:56:47;;;;;;;2.22;1.30;;;;;;;43.02;17.30;99224.45;1759682;80;20971;-68
2022/07/07 06:59:13;;;;;;;1.72;1.25;;;;;;;43.34;16.39;99232.22;1768861;80;20978;-68
2022/07/07 07:01:40;;;;;;;2.85;1.50;;;;;;;43.05;16.74;99224.89;1751029;80;21405;-68
2022/07/07 07:04:09;;;;;;;2.65;1.40;;;;;;;43.32;16.80;99234.61;1743819;80;20943;-68
2022/07/07 07:06:36;;;;;;;2.35;1.60;;;;;;;43.72;16.57;99227.97;1744277;80;22102;-68
2022/07/07 07:09:03;;;;;;;3.65;1.32;;;;;;;44.04;16.10;99229.60;1760026;80;20868;-68
2022/07/07 07:11:29;;;;;;;4.22;1.50;;;;;;;43.84;16.13;99230.38;1765975;80;21449;-67
2022/07/07 07:13:56;;;;;;;1.10;0.90;;;;;;;43.81;16.42;99233.97;1685759;83;21016;-67
2022/07/07 07:16:23;;;;;;;1.12;0.90;;;;;;;44.14;15.84;99228.05;1760433;80;21025;-67
2022/07/07 07:18:50;;;;;;;5.53;0.98;;;;;;;44.22;15.67;99228.27;1765952;80;21144;-67
2022/07/07 07:21:16;;;;;;;2.25;0.90;;;;;;;44.45;15.11;99225.84;1755366;80;20923;-67
2022/07/07 07:23:43;;;;;;;2.30;0.95;;;;;;;44.61;15.23;99234.64;1756649;80;20970;-67
2022/07/07 07:26:10;;;;;;;0.82;0.80;;;;;;;44.66;15.21;99232.05;1767720;80;20915;-67
2022/07/07 07:28:37;;;;;;;4.90;1.27;;;;;;;44.63;15.57;99233.66;1782359;80;20994;-67
2022/07/07 07:31:04;;;;;;;1.45;1.05;;;;;;;44.98;15.52;99228.56;1775973;80;22159;-68
2022/07/07 07:33:31;;;;;;;1.47;0.95;;;;;;;45.29;15.10;99239.53;1767885;80;21469;-68
2022/07/07 07:35:58;;;;;;;1.92;0.98;;;;;;;45.35;14.78;99235.07;1779495;80;21504;-67
2022/07/07 07:38:25;;;;;;;1.72;0.82;;;;;;;45.20;14.83;99228.70;1770200;80;20997;-68
2022/07/07 07:40:51;;;;;;;1.80;1.05;;;;;;;45.44;14.67;99233.23;1781006;80;20989;-68
2022/07/07 07:43:18;;;;;;;1.87;0.88;;;;;;;45.75;14.28;99232.28;1779084;80;21325;-67
2022/07/07 07:45:45;;;;;;;2.15;1.05;;;;;;;45.68;14.46;99230.30;1762530;80;21255;-68
2022/07/07 07:48:11;;;;;;;2.33;1.07;;;;;;;45.83;14.50;99229.62;1753698;80;21471;-68
2022/07/07 07:50:39;;;;;;;3.90;1.30;;;;;;;46.00;14.55;99236.34;1768386;80;20892;-68
2022/07/07 07:53:06;;;;;;;2.52;1.17;;;;;;;46.14;14.24;99237.05;1755738;80;20907;-68
2022/07/07 07:55:35;;;;;;;4.12;1.10;;;;;;;45.17;14.82;99242.73;1769223;80;21237;-67
2022/07/07 07:58:01;;;;;;;2.83;1.10;;;;;;;44.82;15.28;99240.84;1774442;80;20924;-67
2022/07/07 08:00:28;;;;;;;1.12;1.02;;;;;;;44.71;15.35;99240.05;1768603;80;20962;-67
2022/07/07 08:02:54;;;;;;;1.32;0.93;;;;;;;45.21;15.02;99234.49;1755172;80;21043;-67
2022/07/07 08:05:20;;;;;;;1.52;0.95;;;;;;;45.68;14.15;99237.32;1775735;80;20913;-67
2022/07/07 08:07:48;;;;;;;2.17;0.93;;;;;;;45.87;13.82;99231.78;1774835;80;21309;-68
2022/07/07 08:10:16;;;;;;;2.42;0.88;;;;;;;46.14;13.59;99234.23;1781718;80;20981;-67
2022/07/07 08:12:44;;;;;;;1.45;0.90;;;;;;;46.53;13.35;99231.91;1779330;80;21002;-67
2022/07/07 08:15:10;;;;;;;1.17;0.60;;;;;;;47.01;12.95;99231.80;1770878;80;21449;-67
2022/07/07 08:17:38;;;;;;;1.37;0.82;;;;;;;47.06;12.56;99234.78;1778180;80;21362;-67
2022/07/07 08:20:06;;;;;;;3.02;1.72;;;;;;;46.32;12.94;99234.08;1751917;80;21208;-67
2022/07/07 08:22:33;;;;;;;3.25;1.10;;;;;;;46.21;12.89;99229.14;1758378;80;20959;-67
2022/07/07 08:25:01;;;;;;;3.50;1.00;;;;;;;46.23;12.79;99236.58;1755386;80;20911;-68
2022/07/07 08:27:27;;;;;;;2.67;0.90;;;;;;;46.24;12.90;99226.31;1782167;80;20950;-67
2022/07/07 08:29:53;;;;;;;4.20;1.00;;;;;;;44.90;13.55;99228.39;1763489;80;21017;-68
2022/07/07 08:32:20;;;;;;;2.83;0.98;;;;;;;43.42;14.66;99240.25;1774153;80;21249;-69
2022/07/07 08:34:47;;;;;;;2.80;0.93;;;;;;;43.42;15.24;99236.05;1752275;80;20939;-66
2022/07/07 08:37:14;;;;;;;2.90;1.00;;;;;;;42.57;15.68;99236.75;1752134;80;21562;-67
2022/07/07 08:39:40;;;;;;;1.17;0.72;;;;;;;40.90;17.05;99237.46;1767643;80;20848;-67
2022/07/07 08:42:08;;;;;;;3.85;0.80;;;;;;;40.50;17.72;99238.02;1782581;80;21508;-67
2022/07/07 08:44:34;;;;;;;1.60;0.82;;;;;;;41.54;16.74;99232.11;1757583;80;21551;-68
2022/07/07 08:47:01;;;;;;;2.52;0.70;;;;;;;42.80;15.38;99223.31;1751723;80;20923;-67
2022/07/07 08:49:28;;;;;;;1.80;0.60;;;;;;;43.42;14.52;99231.85;1772997;80;20912;-68
2022/07/07 08:51:56;;;;;;;0.95;0.70;;;;;;;42.85;14.76;99229.93;1762155;80;20943;-68
2022/07/07 08:54:24;;;;;;;1.05;0.70;;;;;;;42.75;14.66;99232.08;1755728;80;21622;-68
2022/07/07 08:56:51;;;;;;;0.47;0.47;;;;;;;43.36;14.27;99233.42;1768268;80;21853;-68
2022/07/07 08:59:18;;;;;;;1.07;0.85;;;;;;;44.09;13.88;99234.81;1779540;80;20919;-68
2022/07/07 09:01:57;;;;;;;2.12;1.35;;;;;;;44.35;13.40;99231.45;1766074;80;21467;-68
2022/07/07 09:04:23;;;;;;;4.62;1.25;;;;;;;42.78;14.26;99234.09;1766654;80;21554;-68
2022/07/07 09:07:03;;;;;;;3.67;1.10;;;;;;;40.58;16.00;99236.95;1767636;80;36017;-67
2022/07/07 09:09:52;;;;;;;0.93;0.70;;;;;;;38.80;17.67;99238.82;1780706;80;21182;-66
2022/07/07 09:12:20;;;;;;;2.70;1.00;;;;;;;37.16;19.15;99247.05;1780632;80;20959;-66
2022/07/07 09:14:50;;;;;;;1.30;0.65;;;;;;;35.71;20.56;99249.16;1764022;80;21049;-68
2022/07/07 09:17:29;;;;;;;1.55;0.85;;;;;;;34.42;21.86;99247.85;1760540;80;21579;-68
2022/07/07 09:20:08;;;;;;;2.77;1.00;;;;;;;33.22;23.14;99254.98;1772247;80;21559;-68
2022/07/07 09:22:51;;;;;;;4.70;1.10;;;;;;;32.31;24.15;99255.72;1758502;80;21773;-67
2022/07/07 09:25:23;;;;;;;2.95;1.10;;;;;;;31.71;24.92;99259.51;1776635;80;21044;-67
2022/07/07 09:28:05;;;;;;;2.45;0.90;;;;;;;31.51;26.08;99261.40;1766401;80;20892;-67
2022/07/07 09:30:38;;;;;;;2.15;1.10;;;;;;;32.27;25.51;99258.88;1750720;80;21012;-67
2022/07/07 09:33:08;;;;;;;2.52;1.00;;;;;;;33.79;23.53;99247.34;1762603;80;21018;-67
2022/07/07 09:38:14;;;;;;;1.45;0.72;;;;;;;34.40;22.31;99240.48;1733322;80;20962;-67
2022/07/07 09:41:13;;;;;;;5.12;0.78;;;;;;;35.11;21.48;99239.44;1752348;80;20946;-67
2022/07/07 09:43:53;;;;;;;0.95;0.85;;;;;;;35.24;21.47;99236.16;1767482;80;20892;-67
2022/07/07 09:46:24;;;;;;;2.17;1.15;;;;;;;34.77;21.74;99240.22;1754059;80;21059;-66
2022/07/07 09:48:56;;;;;;;3.87;0.70;;;;;;;33.99;22.39;99241.94;1782001;80;21133;-66
2022/07/07 09:51:32;;;;;;;2.25;0.78;;;;;;;33.24;22.86;99245.25;1774934;80;20986;-66
2022/07/07 09:54:12;;;;;;;0.60;0.60;;;;;;;32.26;23.78;99244.86;1772467;80;20970;-67
2022/07/07 09:56:40;;;;;;;2.77;1.07;;;;;;;31.35;24.85;99253.24;1754924;80;21438;-67
2022/07/07 09:59:14;;;;;;;2.50;0.85;;;;;;;30.86;26.23;99251.89;1767881;80;20967;-67
2022/07/07 10:01:43;;;;;;;1.50;0.75;;;;;;;30.74;26.76;99257.11;1757687;80;22207;-68
2022/07/07 10:04:13;;;;;;;3.10;0.88;;;;;;;30.77;26.62;99253.72;1761667;80;20879;-67
2022/07/07 10:06:41;;;;;;;3.95;1.07;;;;;;;30.88;26.43;99251.02;1778533;80;20879;-67
2022/07/07 10:09:16;;;;;;;3.22;1.07;;;;;;;30.92;25.98;99254.23;1778362;80;20950;-68
2022/07/07 10:11:53;;;;;;;0.65;0.65;;;;;;;30.90;25.71;99252.33;1745696;80;21421;-67
2022/07/07 10:14:33;;;;;;;2.00;0.68;;;;;;;30.80;25.05;99257.23;1769300;80;21263;-68
2022/07/07 10:17:01;;;;;;;2.55;1.00;;;;;;;30.66;25.57;99251.75;1772513;80;21476;-68
2022/07/07 10:19:28;;;;;;;2.20;0.78;;;;;;;30.63;25.63;99251.57;1757201;80;20986;-67
2022/07/07 10:21:56;;;;;;;2.10;0.70;;;;;;;30.45;25.85;99252.73;1744922;80;21524;-67
2022/07/07 10:24:26;;;;;;;3.47;0.88;;;;;;;30.17;26.17;99260.67;1754097;80;20907;-68
2022/07/07 10:26:57;;;;;;;2.05;0.72;;;;;;;30.03;26.92;99258.49;1751010;80;21339;-68
2022/07/07 10:29:45;;;;;;;1.60;0.70;;;;;;;30.01;27.46;99251.10;1750232;80;20927;-69
2022/07/07 10:32:33;;;;;;;4.22;1.25;;;;;;;30.10;27.46;99257.53;1750737;80;20922;-67
2022/07/07 10:35:13;;;;;;;1.57;0.80;;;;;;;30.25;27.26;99255.04;1733875;81;20991;-68
2022/07/07 10:37:53;;;;;;;1.20;0.72;;;;;;;30.29;26.84;99256.08;1687395;83;20932;-67
2022/07/07 10:40:23;;;;;;;1.52;0.85;;;;;;;30.31;26.07;99254.66;1741493;80;21270;-66
2022/07/07 10:43:31;;;;;;;11.03;6.22;;;;;;;30.22;25.97;99255.67;1756351;80;21014;-68
2022/07/07 10:45:58;;;;;;;12.40;7.90;;;;;;;30.01;26.65;99258.55;1751134;80;20939;-68
2022/07/07 10:48:46;;;;;;;7.67;3.50;;;;;;;29.80;26.78;99256.14;1757325;80;21042;-68
2022/07/07 10:51:18;;;;;;;3.47;2.00;;;;;;;29.64;26.86;99264.91;1748248;80;21457;-66
2022/07/07 10:54:08;;;;;;;4.75;2.20;;;;;;;29.41;27.20;99259.00;1760542;80;21231;-67
2022/07/07 10:56:59;;;;;;;6.83;1.90;;;;;;;29.29;28.06;99258.08;1744836;80;21524;-68
2022/07/07 10:59:26;;;;;;;1.60;1.30;;;;;;;29.33;28.12;99257.75;1762166;80;20896;-67
2022/07/07 11:02:04;;;;;;;2.98;1.40;;;;;;;29.48;27.64;99254.77;1723888;80;20994;-67
2022/07/07 11:04:46;;;;;;;2.87;1.30;;;;;;;29.57;27.21;99240.63;1743955;80;20915;-67
2022/07/07 11:07:18;;;;;;;4.45;2.87;;;;;;;29.57;26.29;99245.28;1765261;80;21751;-67
2022/07/07 11:10:08;;;;;;;5.83;4.40;;;;;;;29.58;26.45;99245.00;1760001;80;20971;-68
2022/07/07 11:12:53;;;;;;;8.70;7.20;;;;;;;29.50;26.02;99255.27;1763991;80;21473;-67
2022/07/07 11:15:36;;;;;;;13.38;10.32;;;;;;;29.28;26.42;99248.22;1766164;80;21069;-67
2022/07/07 11:18:15;;;;;;;10.95;5.97;;;;;;;29.08;26.48;99253.43;1777874;80;20918;-68
2022/07/07 11:20:57;;;;;;;3.00;2.27;;;;;;;29.01;26.95;99252.17;1770399;80;21150;-68
2022/07/07 11:23:30;;;;;;;1.25;0.90;;;;;;;29.06;26.58;99248.81;1757151;80;20966;-67
2022/07/07 11:25:57;;;;;;;1.82;1.10;;;;;;;29.11;25.74;99237.78;1739005;80;21066;-66
2022/07/07 11:28:25;;;;;;;2.33;1.75;;;;;;;29.07;25.46;99240.84;1780772;80;20947;-68
2022/07/07 11:31:03;;;;;;;3.62;2.60;;;;;;;29.01;25.85;99245.33;1767082;80;21022;-68
2022/07/07 11:33:31;;;;;;;4.33;1.77;;;;;;;28.96;26.12;99243.48;1779535;80;21790;-67
2022/07/07 11:35:57;;;;;;;22.50;14.13;;;;;;;28.90;26.37;99246.58;1775754;80;21489;-67
2022/07/07 11:38:32;;;;;;;10.75;7.45;;;;;;;28.72;25.51;99244.09;1752704;80;21523;-67
2022/07/07 11:40:56;;;;;;;7.58;4.70;;;;;;;28.57;25.74;99241.52;1750572;80;20979;-67
2022/07/07 11:43:24;;;;;;;6.62;4.33;;;;;;;28.54;25.72;99247.58;1752455;80;21473;-68